• Join FlightAware (Why Join?)
  • Login
  • US Flag 
Rudolph Flight #1: Arrived! 
03:32PM EST


 

Airport Tracker/Info


-or-


 

Live Flight TrackerFlight Track Log ✈ UPS2062 ✈ 16-Dec-2013 ✈ KSDF - KBDL

Flight Track Log - Related Links

Times and Time Zones

All times are in EST time to prevent confusion due to time zone crossing. See the UPS2062 flight status page for this flight to view local times or setup timezone preferences in your user account.

Time Position Orientation Groundspeed Altitude Reporting Facility
EST Latitude Longitude Course Direction KTS MPH feet Rate Location/Type
04:33PM 38.1500 -85.7333 46° Northeast 173 199 2,100  Level Louisville TRACON
04:35PM 38.0644 -85.7106 168° South 238 274 5,000 2,400 Climbing Indianapolis Center
04:36PM 38.0381 -85.7778 244° Southwest 247 284 8,100 2,400 Climbing Indianapolis Center
04:37PM 38.1011 -85.8175 334° Northwest 259 298 10,000 2,100 Climbing Indianapolis Center
04:38PM 38.1931 -85.8158 North 331 381 12,500 2,880 Climbing Indianapolis Center
04:39PM 38.4216 -85.0464 46° Northeast  Level Estimated
04:39PM 38.2808 -85.7233 40° Northeast 415 478 16,000  Level Indianapolis Center
04:40PM 38.3703 -85.6206 42° Northeast 431 496 19,400 3,180 Climbing Indianapolis Center
04:41PM 38.4847 -85.4900 42° Northeast 456 525 22,600 2,640 Climbing Indianapolis Center
04:42PM 38.5881 -85.3775 40° Northeast 480 552 24,900 1,980 Climbing Indianapolis Center
04:43PM 38.6861 -85.2700 41° Northeast 494 568 26,800 960 Climbing Indianapolis Center
04:44PM 38.7944 -85.1519 40° Northeast 509 586 27,000 60 Climbing Indianapolis Center
04:45PM 38.9006 -85.0331 41° Northeast 512 589 27,000 660 Level Indianapolis Center
04:46PM 39.0278 -84.8906 41° Northeast 510 587 28,400 2,340 Climbing Indianapolis Center
04:47PM 39.1356 -84.7708 41° Northeast 508 585 31,900 2,220 Climbing Indianapolis Center
04:48PM 39.2364 -84.6567 41° Northeast 488 562 33,000 480 Climbing Indianapolis Center
04:49PM 39.3433 -84.5367 41° Northeast 504 580 33,000  Level Indianapolis Center
04:50PM 39.4511 -84.4147 41° Northeast 512 589 33,000  Level Indianapolis Center
04:51PM 39.5594 -84.2919 41° Northeast 516 594 33,000  Level Indianapolis Center
04:52PM 39.6708 -84.1217 50° Northeast 526 605 33,000  Level Indianapolis Center
04:53PM 39.7550 -83.9678 55° Northeast 524 603 33,000  Level Indianapolis Center
04:54PM 39.8422 -83.8136 54° Northeast 526 605 33,000  Level Indianapolis Center
04:55PM 39.9308 -83.6589 53° Northeast 524 603 33,000  Level Indianapolis Center
04:57PM 40.0169 -83.4967 55° Northeast 530 610 33,000  Level Indianapolis Center
04:58PM 40.1025 -83.3361 55° Northeast 531 611 33,000  Level Indianapolis Center
04:59PM 40.1869 -83.1767 55° Northeast 531 611 33,000  Level Indianapolis Center
05:00PM 40.2711 -83.0169 55° Northeast 532 612 33,000  Level Indianapolis Center
05:01PM 40.3547 -82.8575 55° Northeast 532 612 33,000  Level Indianapolis Center
05:02PM 40.4456 -82.6831 56° Northeast 535 616 33,000  Level Indianapolis Center
05:03PM 40.5289 -82.5214 56° Northeast 532 612 33,000  Level Indianapolis Center
05:04PM 40.6261 -82.3333 56° Northeast 530 610 33,000  Level Indianapolis Center
05:05PM 40.7089 -82.1692 56° Northeast 533 613 33,000  Level Indianapolis Center
05:06PM 40.7917 -82.0081 56° Northeast 530 610 33,000  Level Indianapolis Center
05:07PM 40.8731 -81.8464 56° Northeast 528 608 33,000  Level Indianapolis Center
05:08PM 40.9550 -81.6839 56° Northeast 529 609 33,000  Level Indianapolis Center
05:09PM 41.0367 -81.5208 56° Northeast 532 612 33,000  Level Indianapolis Center
05:10PM 41.1303 -81.3331 56° Northeast 528 608 33,000  Level Indianapolis Center
05:11PM 41.2111 -81.1675 57° Northeast 533 613 33,000  Level Indianapolis Center
05:12PM 41.2928 -81.0036 56° Northeast 532 612 33,000  Level Indianapolis Center
05:13PM 41.4003 -80.7828 57° Northeast 533 613 33,000  Level Cleveland Center
05:14PM 41.4800 -80.6175 57° Northeast 530 610 33,000  Level Cleveland Center
05:15PM 41.5611 -80.4497 57° Northeast 533 613 33,000  Level Cleveland Center
05:16PM 41.6364 -80.2931 57° Northeast 532 612 33,000  Level Cleveland Center
05:17PM 41.7236 -80.1156 57° Northeast 532 612 33,000  Level Cleveland Center
05:18PM 41.8019 -79.9458 58° Northeast 532 612 33,000  Level Cleveland Center
05:20PM 41.8828 -79.7406 62° Northeast 537 618 33,000  Level Cleveland Center
05:21PM 41.9194 -79.5464 76° East 533 613 33,000  Level Cleveland Center
05:22PM 41.9606 -79.3528 74° East 538 619 33,000  Level Cleveland Center
05:23PM 42.0019 -79.1589 74° East 540 621 33,000  Level Cleveland Center
05:24PM 42.0417 -78.9664 74° East 536 617 33,000  Level Cleveland Center
05:25PM 42.0764 -78.7681 77° East 541 623 33,000  Level Cleveland Center
05:26PM 42.1108 -78.5706 77° East 542 624 33,000  Level Cleveland Center
05:27PM 42.1531 -78.3361 76° East 539 620 33,000  Level Cleveland Center
05:28PM 42.1836 -78.1689 76° East 538 619 33,000  Level Cleveland Center
05:29PM 42.2247 -77.9367 76° East 537 618 33,000  Level Cleveland Center
05:30PM 42.2592 -77.7417 77° East 540 621 33,000  Level Cleveland Center
05:31PM 42.2925 -77.5469 77° East 541 623 33,000  Level Cleveland Center
05:32PM 42.3239 -77.3503 78° East 544 626 33,000  Level Cleveland Center
05:33PM 42.3642 -77.1142 77° East 543 625 33,000  Level Cleveland Center
05:34PM 42.3958 -76.9142 78° East 547 629 33,000  Level Cleveland Center
05:35PM 42.4286 -76.7147 77° East 547 629 33,000  Level Cleveland Center
05:36PM 42.4603 -76.5144 78° East 546 628 33,000  Level Cleveland Center
05:37PM 42.4961 -76.2889 78° East 548 631 33,000 -120 Level Cleveland Center
05:38PM 42.5067 -76.0853 86° East 551 634 32,800 -540 Descending Cleveland Center
05:39PM 42.5058 -75.8831 90° East 542 624 31,900 -1,020 Descending Cleveland Center
05:40PM 42.5033 -75.6819 91° East 540 621 30,800 -1,020 Descending Cleveland Center
05:41PM 42.4992 -75.4806 92° East 539 620 29,800 -1,020 Descending Cleveland Center
05:42PM 42.4933 -75.2403 92° East 536 617 28,700 -1,020 Descending Cleveland Center
05:43PM 42.4886 -75.0403 92° East 536 617 27,800 -1,740 Descending Cleveland Center
05:45PM 42.4814 -74.7931 92° East 539 620 24,700 -2,340 Descending Boston Center
05:46PM 42.4792 -74.5958 91° East 520 598 22,500 -1,800 Descending Boston Center
05:47PM 42.4822 -74.4039 89° East 508 585 21,000 -1,380 Descending Boston Center
05:48PM 42.4847 -74.2167 89° East 495 570 19,700 -1,440 Descending Boston Center
05:49PM 42.4889 -73.9983 88° East 479 551 18,100 -1,140 Descending Boston Center
05:50PM 42.4844 -73.8219 92° East 473 544 17,500 -1,140 Descending Boston Center
05:51PM 42.4431 -73.6556 109° East 468 539 15,800 -1,680 Descending Boston Center
05:51PM 42.4056 -73.5425 114° Southeast 458 527 14,700 -1,920 Descending Boston Center
05:52PM 42.3897 -73.4928 113° Southeast 459 528 14,000 -2,340 Descending Boston Center
05:52PM 42.3889 -73.4858 99° East 460 529 13,900 -1,500 Descending Boston Center
05:53PM 42.3411 -73.3403 114° Southeast 420 483 12,500 -1,440 Descending Boston Center
05:53PM 42.3406 -73.3350 98° East 444 511 12,400 -1,020 Descending Boston Center
05:54PM 42.3006 -73.2000 112° Southeast 382 440 11,500 -1,020 Descending Boston Center
05:54PM 42.3000 -73.1894 94° East 402 463 11,400 -1,020 Descending Boston Center
05:55PM 42.2669 -73.0683 110° East 340 391 10,500 -1,140 Descending Boston Center
05:55PM 42.2681 -73.0628 75° East 360 414 10,300 -1,920 Descending Boston Center
05:56PM 42.2361 -72.9481 111° Southeast 330 380 8,400 -1,860 Descending Boston Center
05:57PM 42.2064 -72.8428 111° Southeast 306 352 6,800 -1,920 Descending Boston Center
05:57PM 42.2033 -72.8308 109° East 312 359 6,500 -1,560 Descending Boston Center
05:58PM 42.1756 -72.7389 112° Southeast 282 325 5,200 -1,560 Descending Boston Center
05:58PM 42.1722 -72.7300 117° Southeast 292 336 4,900 -1,500 Descending Boston Center
05:59PM 42.1228 -72.6792 143° Southeast 256 295 3,700 -1,320 Descending Boston Center
05:59PM 42.1153 -72.6706 140° Southeast 259 298 3,600 -840 Descending Boston Center
06:00PM 42.0692 -72.6222 142° Southeast 217 250 2,900 -840 Descending Boston Center
06:00PM 42.0653 -72.6172 136° Southeast 231 266 2,800 -720 Descending Boston Center
06:01PM 42.0256 -72.5922 155° Southeast 156 180 2,200 -660 Descending Boston Center
06:01PM 42.0233 -72.5919 175° South 165 190 2,100 -840 Descending Boston Center
06:02PM 41.9906 -72.6172 210° Southwest 133 153 1,400 -840 Descending Boston Center
06:02PM 41.9881 -72.6228 239° Southwest 141 162 1,300 -720 Descending Boston Center
06:03PM 41.9658 -72.6547 227° Southwest 132 152 700 -720 Descending Boston Center
06:03PM 41.9619 -72.6575 208° Southwest 134 154 600 -480 Descending Boston Center
06:04PM 41.9342 -72.6933 224° Southwest 133 153 200 -420 Descending Boston Center
06:06PM 41.9333 -72.6833 North  Level FlightAware Approximate